Time;durP1;ratioP1;P1;durP2;ratioP2;P2;SDS_P1;SDS_P2;PMS_P1;PMS_P2;Temp;Humidity;BMP_temperature;BMP_pressure;BME280_temperature;BME280_humidity;BME280_pressure;Samples;Min_cycle;Max_cycle;Signal;HPM_P1;HPM_P2
2022/05/09 00:01:53;;;;;;;5.88;5.68;;;;;;;10.55;82.03;101350.88;5031375;28;20091;-61
2022/05/09 00:04:20;;;;;;;6.25;5.95;;;;;;;10.60;81.47;101356.56;5031030;28;20049;-61
2022/05/09 00:06:46;;;;;;;6.32;6.03;;;;;;;10.56;81.48;101357.00;5032200;28;20025;-60
2022/05/09 00:09:12;;;;;;;6.47;6.18;;;;;;;10.39;83.23;101345.44;5030757;28;20554;-61
2022/05/09 00:11:39;;;;;;;5.90;5.70;;;;;;;10.33;83.74;101336.25;5034618;28;20037;-62
2022/05/09 00:14:05;;;;;;;6.10;5.88;;;;;;;10.29;84.22;101345.53;5034436;28;20057;-61
2022/05/09 00:16:33;;;;;;;5.90;5.70;;;;;;;10.19;84.19;101336.78;5034610;28;20028;-61
2022/05/09 00:19:05;;;;;;;6.00;5.80;;;;;;;10.16;85.44;101345.03;5033541;28;20103;-61
2022/05/09 00:21:40;;;;;;;5.97;5.78;;;;;;;10.06;85.21;101347.78;5034240;28;20460;-62
2022/05/09 00:24:08;;;;;;;6.05;5.85;;;;;;;10.05;86.18;101339.97;5026799;28;20040;-62
2022/05/09 00:26:35;;;;;;;6.00;5.80;;;;;;;9.94;86.36;101347.16;5034228;28;20080;-62
2022/05/09 00:29:03;;;;;;;5.90;5.70;;;;;;;9.81;86.95;101341.38;5033923;28;20026;-62
2022/05/09 00:31:28;;;;;;;5.97;5.78;;;;;;;9.86;86.77;101348.91;5029847;28;20424;-61
2022/05/09 00:33:54;;;;;;;6.50;6.20;;;;;;;9.84;86.66;101341.09;5033946;28;20020;-61
2022/05/09 00:36:21;;;;;;;6.03;5.80;;;;;;;9.79;87.23;101337.22;5033838;28;20025;-62
2022/05/09 00:38:47;;;;;;;5.80;5.60;;;;;;;9.77;86.85;101342.69;5034344;28;20021;-61
2022/05/09 00:41:28;;;;;;;5.88;5.68;;;;;;;9.64;88.14;101345.69;5033954;28;20394;-61
2022/05/09 00:43:55;;;;;;;5.90;5.70;;;;;;;9.61;88.33;101342.47;5030079;28;20046;-61
2022/05/09 00:46:22;;;;;;;6.38;6.07;;;;;;;9.59;88.13;101342.63;5031912;28;20099;-60
2022/05/09 00:48:48;;;;;;;5.80;5.60;;;;;;;9.56;88.31;101342.13;5023944;28;20033;-62
2022/05/09 00:51:19;;;;;;;6.10;5.82;;;;;;;9.56;88.40;101350.91;5033510;28;20060;-62
2022/05/09 00:53:48;;;;;;;5.53;5.32;;;;;;;9.55;87.78;101343.94;5033847;28;20036;-61
2022/05/09 00:56:22;;;;;;;6.40;6.10;;;;;;;9.58;87.95;101343.63;5032609;28;20117;-61
2022/05/09 00:58:55;;;;;;;;;;;;;;;9.65;87.91;101341.22;5034184;28;20036;-62
2022/05/09 01:01:21;;;;;;;6.30;6.00;;;;;;;9.48;88.49;101339.38;5026707;28;19921;-62
2022/05/09 01:04:06;;;;;;;5.63;5.43;;;;;;;9.39;90.08;101339.25;5048356;28;20802;-60
2022/05/09 01:06:33;;;;;;;5.85;5.65;;;;;;;9.43;89.92;101333.69;5034442;28;20045;-61
2022/05/09 01:08:58;;;;;;;5.90;5.70;;;;;;;9.47;89.43;101330.56;5032732;28;20083;-62
2022/05/09 01:11:26;;;;;;;6.13;5.85;;;;;;;9.49;89.01;101333.91;5032495;28;20021;-62
2022/05/09 01:13:58;;;;;;;5.65;5.45;;;;;;;9.50;90.17;101332.09;5022034;28;20029;-61
2022/05/09 01:16:25;;;;;;;5.60;5.40;;;;;;;9.41;90.13;101334.66;5033524;28;20056;-61
2022/05/09 01:18:52;;;;;;;5.72;5.53;;;;;;;9.28;91.72;101328.03;5032607;28;20029;-61
2022/05/09 01:21:38;;;;;;;5.80;5.60;;;;;;;9.27;92.24;101321.91;5033412;28;20025;-61
2022/05/09 01:24:13;;;;;;;5.70;5.50;;;;;;;9.21;92.18;101313.72;5032242;28;20021;-61
2022/05/09 01:26:38;;;;;;;5.80;5.60;;;;;;;9.29;92.63;101325.22;5032770;28;20025;-63
2022/05/09 01:29:12;;;;;;;6.20;5.90;;;;;;;9.18;92.54;101320.16;5032990;28;20033;-61
2022/05/09 01:31:39;;;;;;;5.60;5.40;;;;;;;9.21;92.86;101316.38;5023908;28;20045;-62
2022/05/09 01:34:09;;;;;;;5.60;5.40;;;;;;;9.21;93.17;101322.50;5029480;28;20040;-62
2022/05/09 01:36:36;;;;;;;5.90;5.70;;;;;;;9.14;93.49;101322.22;5032812;28;20127;-62
2022/05/09 01:39:08;;;;;;;6.00;5.80;;;;;;;9.25;92.97;101323.84;5033223;28;20426;-62
2022/05/09 01:41:40;;;;;;;6.07;5.85;;;;;;;9.25;92.83;101320.38;5031984;28;20021;-62
2022/05/09 01:44:07;;;;;;;5.97;5.78;;;;;;;9.35;91.86;101316.72;5020943;28;20045;-61
2022/05/09 01:46:34;;;;;;;6.07;5.85;;;;;;;9.31;93.29;101320.63;5033085;28;20029;-62
2022/05/09 01:51:46;;;;;;;5.93;5.72;;;;;;;9.44;93.61;101314.16;5032655;28;20041;-63
2022/05/09 01:54:13;;;;;;;5.65;5.45;;;;;;;9.48;92.61;101316.38;5032882;28;20104;-61
2022/05/09 01:56:41;;;;;;;5.60;5.40;;;;;;;9.50;93.00;101317.03;5026745;28;20031;-61
2022/05/09 01:59:08;;;;;;;5.60;5.40;;;;;;;9.38;95.07;101318.22;5031884;28;20047;-62
2022/05/09 02:01:37;;;;;;;6.22;5.93;;;;;;;9.33;96.45;101317.84;5032375;28;20436;-61
2022/05/09 02:04:04;;;;;;;6.00;5.80;;;;;;;9.30;97.31;101323.41;5032329;28;20040;-61
2022/05/09 02:06:29;;;;;;;5.90;5.70;;;;;;;9.28;96.81;101318.28;5014399;28;20433;-63
2022/05/09 02:08:54;;;;;;;6.30;6.00;;;;;;;9.35;96.44;101324.66;5032045;28;20028;-61
2022/05/09 02:11:20;;;;;;;6.40;6.10;;;;;;;9.36;96.26;101323.66;5031864;28;20657;-61
2022/05/09 02:13:45;;;;;;;5.80;5.60;;;;;;;9.51;95.86;101320.53;5032958;28;20450;-62
2022/05/09 02:16:12;;;;;;;5.80;5.60;;;;;;;9.57;95.28;101315.47;5031792;28;20030;-61
2022/05/09 02:18:38;;;;;;;6.30;6.00;;;;;;;9.70;93.60;101331.00;5032431;28;20035;-62
2022/05/09 02:21:04;;;;;;;5.72;5.53;;;;;;;9.74;93.94;101331.53;5032130;28;20057;-60
2022/05/09 02:23:30;;;;;;;6.05;5.82;;;;;;;9.85;93.35;101336.63;5024540;28;20076;-63
2022/05/09 02:25:56;;;;;;;5.88;5.68;;;;;;;9.92;92.07;101343.84;5030661;28;20398;-61
2022/05/09 02:28:21;;;;;;;5.63;5.43;;;;;;;9.97;90.88;101340.72;5031920;28;20045;-61
2022/05/09 02:30:47;;;;;;;5.70;5.50;;;;;;;10.01;90.75;101331.50;5040168;28;20036;-61
2022/05/09 02:33:14;;;;;;;5.85;5.65;;;;;;;10.00;90.62;101337.78;5031719;28;20405;-62
2022/05/09 02:35:40;;;;;;;5.88;5.68;;;;;;;9.86;90.97;101338.28;5032426;28;20027;-61
2022/05/09 02:38:06;;;;;;;5.63;5.43;;;;;;;9.68;92.50;101344.38;5032091;28;20123;-60
2022/05/09 02:40:33;;;;;;;5.80;5.60;;;;;;;9.88;91.03;101342.47;5028873;28;20022;-62
2022/05/09 02:42:59;;;;;;;6.10;5.85;;;;;;;9.85;90.70;101337.47;5028308;28;20080;-62
2022/05/09 02:45:26;;;;;;;6.30;6.00;;;;;;;9.79;91.82;101339.88;5031827;28;20041;-61
2022/05/09 02:47:52;;;;;;;6.20;5.90;;;;;;;9.87;91.21;101340.78;5035166;28;20029;-61
2022/05/09 02:50:21;;;;;;;5.68;5.47;;;;;;;9.68;92.82;101338.25;5032385;28;20034;-60
2022/05/09 02:52:51;;;;;;;5.80;5.60;;;;;;;9.68;94.18;101338.25;5020367;28;20087;-62
2022/05/09 02:55:17;;;;;;;6.00;5.80;;;;;;;9.47;95.49;101335.88;5031653;28;20057;-60
2022/05/09 02:57:43;;;;;;;6.10;5.85;;;;;;;9.66;94.77;101346.34;5019822;28;20037;-61
2022/05/09 03:00:14;;;;;;;6.47;6.18;;;;;;;9.68;93.07;101339.09;5031510;28;20400;-61
2022/05/09 03:02:39;;;;;;;6.20;5.90;;;;;;;10.02;90.43;101342.91;5032342;28;20021;-61
2022/05/09 03:05:07;;;;;;;5.80;5.60;;;;;;;9.85;90.02;101347.25;5031958;28;20435;-61
2022/05/09 03:07:32;;;;;;;5.70;5.50;;;;;;;10.12;88.90;101336.53;5021567;28;20077;-61
2022/05/09 03:09:58;;;;;;;5.70;5.50;;;;;;;10.47;87.31;101345.50;5030645;28;20045;-63
2022/05/09 03:12:23;;;;;;;5.70;5.50;;;;;;;10.97;84.25;101347.50;5029785;28;20108;-61
2022/05/09 03:14:49;;;;;;;5.90;5.70;;;;;;;11.03;82.57;101347.72;5033157;28;20020;-61
2022/05/09 03:17:15;;;;;;;6.35;6.05;;;;;;;11.17;81.32;101343.63;5032361;28;20048;-61
2022/05/09 03:19:41;;;;;;;6.00;5.80;;;;;;;11.92;77.86;101338.44;5029955;28;20032;-62
2022/05/09 03:22:07;;;;;;;6.18;5.88;;;;;;;11.93;77.45;101345.41;5032203;28;20057;-60
2022/05/09 03:24:33;;;;;;;6.10;5.90;;;;;;;11.28;79.85;101346.00;5031662;28;20465;-62
2022/05/09 03:27:03;;;;;;;6.28;6.03;;;;;;;12.69;74.04;101342.44;5030281;28;20452;-62
2022/05/09 03:29:30;;;;;;;6.55;6.25;;;;;;;13.27;69.49;101348.47;5014262;28;20026;-62
2022/05/09 03:31:56;;;;;;;6.50;6.20;;;;;;;13.90;66.74;101347.53;5028894;28;20033;-61
2022/05/09 03:34:21;;;;;;;6.68;6.38;;;;;;;13.29;69.28;101343.81;5028335;28;20163;-61
2022/05/09 03:36:47;;;;;;;6.57;6.28;;;;;;;17.07;56.23;101353.44;5032083;28;20025;-63
2022/05/09 03:39:13;;;;;;;6.93;6.63;;;;;;;18.05;50.77;101356.72;5031895;28;20116;-61
2022/05/09 03:41:38;;;;;;;6.70;6.40;;;;;;;17.51;52.35;101352.19;5033765;28;20034;-62
2022/05/09 03:44:05;;;;;;;6.47;6.18;;;;;;;17.61;51.16;101365.22;5035555;28;20400;-61
2022/05/09 03:46:32;;;;;;;6.70;6.40;;;;;;;17.92;50.76;101368.28;5037347;28;20082;-62
2022/05/09 03:49:00;;;;;;;6.63;6.32;;;;;;;19.45;46.30;101377.13;5044024;28;20087;-63
2022/05/09 03:51:26;;;;;;;6.60;6.30;;;;;;;19.86;44.90;101389.41;5035647;28;20043;-62
2022/05/09 03:53:51;;;;;;;6.47;6.18;;;;;;;20.19;43.24;101391.06;5032164;28;20030;-62
2022/05/09 03:56:17;;;;;;;6.70;6.40;;;;;;;16.83;52.57;101383.38;5032897;28;20083;-63
2022/05/09 03:58:43;;;;;;;6.80;6.50;;;;;;;19.98;46.26;101387.69;5033891;28;20104;-62
2022/05/09 04:01:11;;;;;;;6.80;6.50;;;;;;;19.71;45.41;101386.19;5033667;28;20521;-63
2022/05/09 04:03:37;;;;;;;6.78;6.47;;;;;;;21.97;40.55;101386.66;5032922;28;20045;-62
2022/05/09 04:06:03;;;;;;;6.70;6.40;;;;;;;21.21;42.50;101389.81;5032775;28;20088;-63
2022/05/09 04:08:28;;;;;;;7.05;6.75;;;;;;;22.65;39.04;101392.72;5034104;28;20537;-62
2022/05/09 04:10:58;;;;;;;7.07;6.78;;;;;;;22.53;39.09;101396.22;5032884;28;20389;-62
2022/05/09 04:13:23;;;;;;;7.20;6.90;;;;;;;23.33;37.31;101397.56;5031236;28;20052;-62
2022/05/09 04:18:41;;;;;;;6.95;6.65;;;;;;;17.88;49.77;101388.50;5033173;28;20076;-62
2022/05/09 04:21:09;;;;;;;6.60;6.30;;;;;;;17.88;50.83;101388.50;5034322;28;20495;-63
2022/05/09 04:23:34;;;;;;;6.60;6.30;;;;;;;16.99;52.12;101388.44;5020764;28;20034;-63
2022/05/09 04:26:01;;;;;;;6.80;6.50;;;;;;;18.05;50.55;101388.13;5033884;28;20125;-63
2022/05/09 04:28:27;;;;;;;7.10;6.80;;;;;;;17.45;50.88;101390.56;5033883;28;20029;-62
2022/05/09 04:30:52;;;;;;;6.60;6.30;;;;;;;17.27;51.44;101387.56;5034558;28;20037;-63
2022/05/09 04:33:18;;;;;;;6.93;6.63;;;;;;;17.16;51.75;101380.91;5033624;28;20461;-63
2022/05/09 04:35:44;;;;;;;7.13;6.82;;;;;;;16.35;54.17;101382.28;5032983;28;20033;-62
2022/05/09 04:38:16;;;;;;;6.90;6.60;;;;;;;16.50;54.74;101386.56;5033671;28;20033;-62
2022/05/09 04:40:42;;;;;;;7.20;6.90;;;;;;;18.49;48.66;101379.50;5033584;28;20128;-62
2022/05/09 04:43:07;;;;;;;6.90;6.60;;;;;;;18.18;48.19;101383.59;5033419;28;20049;-63
2022/05/09 04:45:33;;;;;;;6.60;6.30;;;;;;;16.72;53.48;101384.72;5023338;28;20044;-63
2022/05/09 04:47:59;;;;;;;6.50;6.20;;;;;;;17.23;51.90;101379.09;5033094;28;20528;-64
2022/05/09 04:50:28;;;;;;;6.85;6.55;;;;;;;19.16;47.47;101385.69;5033781;28;20121;-61
2022/05/09 04:52:53;;;;;;;6.88;6.57;;;;;;;17.85;49.51;101385.41;5032114;28;20393;-61
2022/05/09 04:55:19;;;;;;;6.95;6.65;;;;;;;21.62;41.11;101382.97;5032712;28;20026;-62
2022/05/09 04:57:49;;;;;;;6.70;6.40;;;;;;;23.06;37.82;101392.66;5030987;28;20044;-63
2022/05/09 05:00:17;;;;;;;7.15;6.85;;;;;;;24.65;35.32;101402.00;5032868;28;20049;-62
2022/05/09 05:02:42;;;;;;;6.88;6.57;;;;;;;24.79;34.20;101398.69;5033404;28;20480;-62
2022/05/09 05:05:09;;;;;;;6.88;6.57;;;;;;;25.62;33.50;101394.13;5032399;28;20025;-61
2022/05/09 05:07:35;;;;;;;6.97;6.68;;;;;;;25.59;32.73;101391.94;5031793;28;20021;-62
2022/05/09 05:10:00;;;;;;;6.93;6.63;;;;;;;26.33;31.89;101390.56;5033073;28;20029;-62
2022/05/09 05:12:27;;;;;;;6.85;6.55;;;;;;;24.49;34.06;101393.59;5032920;28;20053;-62
2022/05/09 05:14:52;;;;;;;7.20;6.90;;;;;;;26.17;31.63;101390.41;5032066;28;20031;-63
2022/05/09 05:17:17;;;;;;;7.07;6.78;;;;;;;26.59;30.76;101394.34;5032671;28;20033;-63
2022/05/09 05:19:44;;;;;;;7.10;6.80;;;;;;;27.48;30.08;101410.72;5026232;28;20036;-63
2022/05/09 05:22:15;;;;;;;7.10;6.80;;;;;;;29.36;27.27;101409.22;5032160;28;20051;-62
2022/05/09 05:24:44;;;;;;;7.22;6.93;;;;;;;28.91;27.99;101410.97;5031855;28;20033;-64
2022/05/09 05:27:11;;;;;;;7.18;6.88;;;;;;;29.60;26.67;101409.41;5032582;28;20025;-63
2022/05/09 05:29:37;;;;;;;7.22;6.93;;;;;;;29.52;26.76;101410.00;5032560;28;20446;-63
2022/05/09 05:32:21;;;;;;;7.20;6.90;;;;;;;28.39;27.97;101408.53;5033064;28;20029;-63
2022/05/09 05:34:47;;;;;;;7.05;6.75;;;;;;;28.49;27.64;101412.06;5033800;28;20017;-61
2022/05/09 05:37:13;;;;;;;7.10;6.80;;;;;;;30.10;26.05;101413.00;5033148;28;20021;-62
2022/05/09 05:39:40;;;;;;;7.13;6.82;;;;;;;30.79;25.31;101417.41;5031722;28;20021;-63
2022/05/09 05:42:06;;;;;;;7.45;7.15;;;;;;;28.40;27.12;101419.16;5031813;28;20034;-62
2022/05/09 05:44:32;;;;;;;7.32;7.03;;;;;;;28.99;27.49;101410.41;5031601;28;20099;-63
2022/05/09 05:46:57;;;;;;;7.10;6.80;;;;;;;29.78;26.42;101421.66;5032390;28;20544;-62
2022/05/09 05:49:23;;;;;;;7.40;7.10;;;;;;;30.00;25.83;101414.69;5030578;28;20021;-62
2022/05/09 05:51:48;;;;;;;7.60;7.30;;;;;;;30.98;25.00;101414.75;5030003;28;20049;-61
2022/05/09 05:54:14;;;;;;;7.30;7.00;;;;;;;29.47;26.38;101415.47;5030408;28;20056;-61
2022/05/09 05:56:39;;;;;;;7.10;6.80;;;;;;;28.29;27.93;101414.78;5031835;28;20113;-62
2022/05/09 05:59:05;;;;;;;7.30;7.00;;;;;;;30.15;25.98;101419.25;5031193;28;20476;-62
2022/05/09 06:01:33;;;;;;;7.10;6.80;;;;;;;29.02;27.06;101414.53;5025031;28;20032;-62
2022/05/09 06:04:00;;;;;;;7.20;6.90;;;;;;;29.58;26.49;101419.81;5031959;28;20036;-63
2022/05/09 06:06:26;;;;;;;7.13;6.82;;;;;;;29.59;26.14;101416.81;5024853;28;20021;-64
2022/05/09 06:08:51;;;;;;;7.18;6.88;;;;;;;31.62;23.59;101432.66;5028658;28;20669;-64
2022/05/09 06:11:17;;;;;;;7.38;7.07;;;;;;;31.58;23.61;101424.22;5025787;28;20112;-66
2022/05/09 06:13:42;;;;;;;7.32;7.03;;;;;;;32.10;23.13;101422.44;5027201;28;20083;-65
2022/05/09 06:16:08;;;;;;;7.10;6.80;;;;;;;32.48;22.14;101416.91;5030183;28;20033;-65
2022/05/09 06:18:33;;;;;;;6.93;6.63;;;;;;;30.98;24.12;101420.22;5040564;28;20075;-64
2022/05/09 06:20:59;;;;;;;7.15;6.85;;;;;;;31.00;24.18;101416.09;5030422;28;20641;-64
2022/05/09 06:23:25;;;;;;;7.10;6.80;;;;;;;31.36;23.78;101418.44;5030550;28;20044;-64
2022/05/09 06:25:51;;;;;;;7.00;6.70;;;;;;;30.19;25.28;101403.91;5030534;28;20025;-64
2022/05/09 06:28:22;;;;;;;6.90;6.60;;;;;;;30.79;24.59;101415.47;5030883;28;20049;-64
2022/05/09 06:30:47;;;;;;;6.90;6.60;;;;;;;28.65;27.36;101420.28;5031701;28;20140;-63
2022/05/09 06:33:21;;;;;;;6.90;6.60;;;;;;;28.94;26.52;101412.34;5042005;28;20120;-64
2022/05/09 06:35:46;;;;;;;6.65;6.35;;;;;;;29.12;26.34;101414.50;5031042;28;20405;-63
2022/05/09 06:38:17;;;;;;;7.05;6.75;;;;;;;30.32;25.12;101404.34;5031519;28;20025;-65
2022/05/09 06:40:43;;;;;;;7.25;6.95;;;;;;;31.55;23.69;101415.75;5033809;28;20049;-64
2022/05/09 06:43:08;;;;;;;6.95;6.65;;;;;;;29.19;26.34;101415.03;5031317;28;20045;-65
2022/05/09 06:45:34;;;;;;;6.85;6.55;;;;;;;29.15;26.55;101430.31;5033207;28;20112;-65
2022/05/09 06:48:00;;;;;;;6.80;6.50;;;;;;;28.36;27.76;101418.09;5037321;28;20507;-63
2022/05/09 06:50:29;;;;;;;6.95;6.65;;;;;;;26.75;30.39;101408.91;5027806;28;20025;-62
2022/05/09 06:52:55;;;;;;;6.88;6.57;;;;;;;26.16;31.50;101417.88;5037393;28;20033;-65
2022/05/09 06:55:21;;;;;;;6.75;6.45;;;;;;;26.06;31.83;101415.03;5033814;28;20044;-64
2022/05/09 06:57:49;;;;;;;6.70;6.40;;;;;;;25.61;32.74;101425.09;5031426;28;20044;-63
2022/05/09 07:00:21;;;;;;;6.72;6.43;;;;;;;24.88;33.81;101418.09;5029242;28;20102;-64
2022/05/09 07:02:47;;;;;;;6.70;6.40;;;;;;;24.43;34.71;101418.16;5034855;28;20044;-64
2022/05/09 07:05:15;;;;;;;6.75;6.45;;;;;;;24.36;35.33;101420.22;5027361;28;20129;-63
2022/05/09 07:07:42;;;;;;;6.53;6.22;;;;;;;24.11;35.62;101424.09;5052106;28;20033;-64
2022/05/09 07:10:08;;;;;;;6.57;6.28;;;;;;;23.52;37.63;101431.56;5029216;28;20029;-66
2022/05/09 07:12:48;;;;;;;6.63;6.32;;;;;;;23.06;38.92;101427.00;5024483;28;20029;-64
2022/05/09 07:15:19;;;;;;;7.00;6.70;;;;;;;22.71;40.26;101425.06;5030752;28;20026;-62
2022/05/09 07:17:45;;;;;;;7.00;6.70;;;;;;;23.20;39.36;101424.88;5032454;28;20043;-63
2022/05/09 07:20:11;;;;;;;7.85;7.55;;;;;;;23.49;38.99;101423.88;5034910;28;20079;-64
2022/05/09 07:22:37;;;;;;;7.10;6.80;;;;;;;24.30;37.64;101432.00;5035164;28;20083;-63
2022/05/09 07:25:03;;;;;;;7.22;6.93;;;;;;;23.45;39.37;101420.03;5020105;28;20033;-63
2022/05/09 07:27:30;;;;;;;6.93;6.63;;;;;;;24.32;38.22;101433.44;5031462;28;20370;-64
2022/05/09 07:29:56;;;;;;;7.25;6.95;;;;;;;25.30;36.34;101437.47;5032760;28;20104;-64
2022/05/09 07:32:21;;;;;;;7.40;7.10;;;;;;;28.21;31.27;101437.97;5041137;28;20074;-62
2022/05/09 07:34:49;;;;;;;7.32;7.03;;;;;;;28.57;30.96;101441.59;5028927;28;20112;-64
2022/05/09 07:37:15;;;;;;;7.30;7.00;;;;;;;28.85;30.47;101445.63;5039615;28;20021;-63
2022/05/09 07:39:41;;;;;;;7.20;6.90;;;;;;;27.80;31.75;101437.84;5048544;28;20048;-63
2022/05/09 07:42:08;;;;;;;7.07;6.78;;;;;;;26.97;33.65;101442.28;5033801;28;20381;-63
2022/05/09 07:44:33;;;;;;;7.30;7.00;;;;;;;28.34;31.76;101437.44;5032122;28;20575;-63
2022/05/09 07:46:59;;;;;;;7.50;7.20;;;;;;;29.33;29.87;101440.66;5038530;28;20111;-63
2022/05/09 07:49:24;;;;;;;7.00;6.70;;;;;;;29.81;29.47;101443.78;5035832;28;20029;-64
2022/05/09 07:51:50;;;;;;;7.00;6.70;;;;;;;29.41;29.56;101442.00;5039836;28;20098;-63
2022/05/09 07:54:16;;;;;;;7.20;6.90;;;;;;;30.80;27.91;101449.19;5035257;28;20045;-63
2022/05/09 07:56:43;;;;;;;7.10;6.80;;;;;;;29.86;29.22;101446.50;5037519;28;20468;-65
2022/05/09 07:59:09;;;;;;;7.00;6.70;;;;;;;26.84;32.61;101437.28;5042959;28;20025;-63
2022/05/09 08:01:35;;;;;;;7.00;6.70;;;;;;;27.96;31.84;101441.44;5042042;28;20159;-64
2022/05/09 08:04:00;;;;;;;6.70;6.40;;;;;;;29.04;30.59;101442.38;5032944;28;20498;-65
2022/05/09 08:06:27;;;;;;;6.82;6.53;;;;;;;28.48;31.49;101440.47;5033441;28;20033;-65
2022/05/09 08:08:53;;;;;;;7.05;6.75;;;;;;;29.10;31.14;101450.28;5029494;28;20117;-65
2022/05/09 08:11:19;;;;;;;6.93;6.63;;;;;;;28.67;31.75;101439.94;5032783;28;20120;-64
2022/05/09 08:13:45;;;;;;;7.20;6.90;;;;;;;29.35;30.58;101443.94;5026106;28;20444;-65
2022/05/09 08:16:12;;;;;;;6.88;6.57;;;;;;;31.02;28.51;101441.28;5038048;28;20115;-64
2022/05/09 08:18:38;;;;;;;7.50;7.20;;;;;;;28.92;31.09;101428.19;5033625;28;20515;-65
2022/05/09 08:21:04;;;;;;;7.10;6.80;;;;;;;27.88;33.40;101433.78;5030354;28;20034;-63
2022/05/09 08:23:31;;;;;;;7.13;6.82;;;;;;;29.12;31.42;101436.34;5031242;28;20481;-63
2022/05/09 08:25:58;;;;;;;7.10;6.80;;;;;;;27.50;34.18;101429.53;5038758;28;20087;-65
2022/05/09 08:28:24;;;;;;;6.70;6.40;;;;;;;29.21;31.07;101422.94;5022857;28;20029;-64
2022/05/09 08:30:51;;;;;;;7.00;6.70;;;;;;;28.83;32.02;101434.19;5033795;28;20025;-65
2022/05/09 08:33:20;;;;;;;6.80;6.50;;;;;;;28.54;31.94;101442.09;5040826;28;20381;-66
2022/05/09 08:35:48;;;;;;;6.82;6.53;;;;;;;28.27;32.68;101425.94;5017945;28;20053;-65
2022/05/09 08:38:14;;;;;;;6.82;6.53;;;;;;;27.67;34.39;101430.16;5040194;28;20039;-65
2022/05/09 08:41:07;;;;;;;6.90;6.60;;;;;;;26.52;36.55;101432.66;5034484;28;20067;-65
2022/05/09 08:44:10;;;;;;;6.80;6.50;;;;;;;26.92;35.09;101432.16;5037365;28;20055;-64
2022/05/09 08:47:13;;;;;;;7.30;7.00;;;;;;;26.54;36.56;101435.94;5034265;28;20487;-64
2022/05/09 08:50:15;;;;;;;7.03;6.72;;;;;;;26.02;36.74;101432.97;5036130;28;20488;-66
2022/05/09 08:52:49;;;;;;;7.10;6.80;;;;;;;26.67;35.81;101438.25;5041003;28;20033;-63
2022/05/09 08:55:19;;;;;;;7.00;6.70;;;;;;;27.50;34.27;101435.78;5029494;28;20061;-64
2022/05/09 08:57:51;;;;;;;6.90;6.60;;;;;;;26.04;36.27;101437.06;5032022;28;20033;-63
2022/05/09 09:00:19;;;;;;;6.88;6.57;;;;;;;25.58;36.89;101431.06;5040421;28;20029;-63
2022/05/09 09:02:48;;;;;;;6.90;6.60;;;;;;;25.03;37.51;101429.22;5037191;28;20492;-64
2022/05/09 09:05:21;;;;;;;7.05;6.75;;;;;;;25.13;36.81;101422.31;5038354;28;20044;-64
2022/05/09 09:07:52;;;;;;;6.97;6.68;;;;;;;25.46;36.77;101432.25;5026134;28;20516;-64
2022/05/09 09:10:25;;;;;;;7.22;6.93;;;;;;;25.86;37.18;101430.06;5030057;28;20032;-64
2022/05/09 09:12:51;;;;;;;7.10;6.80;;;;;;;26.10;37.36;101436.03;5030711;28;20026;-64
2022/05/09 09:15:32;;;;;;;6.95;6.65;;;;;;;27.34;35.72;101439.53;5031767;28;20040;-65
2022/05/09 09:18:00;;;;;;;7.10;6.80;;;;;;;26.34;36.94;101427.56;5028669;28;20029;-64
2022/05/09 09:20:35;;;;;;;6.60;6.30;;;;;;;26.24;38.13;101433.75;5025667;28;20029;-64
2022/05/09 09:23:14;;;;;;;6.93;6.63;;;;;;;27.15;37.26;101433.69;5027113;28;20358;-64
2022/05/09 09:25:51;;;;;;;6.80;6.50;;;;;;;26.73;38.06;101433.63;5033462;28;20060;-64
2022/05/09 09:28:25;;;;;;;6.90;6.60;;;;;;;27.23;37.06;101438.66;5025797;28;20033;-64
2022/05/09 09:30:51;;;;;;;6.70;6.40;;;;;;;28.22;35.09;101436.06;5032436;28;20167;-64
2022/05/09 09:33:19;;;;;;;6.72;6.43;;;;;;;27.67;35.90;101434.75;5032693;28;20112;-64
2022/05/09 09:35:55;;;;;;;7.10;6.80;;;;;;;27.49;35.25;101431.44;5029292;28;20481;-64
2022/05/09 09:38:31;;;;;;;6.75;6.45;;;;;;;26.77;36.43;101428.50;5031183;28;20504;-67
2022/05/09 09:40:57;;;;;;;6.88;6.57;;;;;;;26.23;35.25;101425.84;5032287;28;20108;-65
2022/05/09 09:43:22;;;;;;;6.72;6.43;;;;;;;26.41;34.70;101425.47;5032317;28;20128;-65
2022/05/09 09:46:04;;;;;;;6.93;6.63;;;;;;;26.34;34.76;101427.56;5032566;28;20112;-66
2022/05/09 09:48:31;;;;;;;6.78;6.47;;;;;;;25.85;35.36;101416.72;5030020;28;20025;-65
2022/05/09 09:51:10;;;;;;;6.72;6.43;;;;;;;26.41;35.00;101415.41;5032932;28;20136;-65
2022/05/09 09:53:39;;;;;;;6.70;6.40;;;;;;;25.48;36.30;101422.75;5028804;28;20100;-65
2022/05/09 09:56:10;;;;;;;6.60;6.30;;;;;;;25.51;35.58;101418.75;5013577;28;20493;-64
2022/05/09 09:58:40;;;;;;;6.88;6.57;;;;;;;25.44;35.25;101416.22;5031421;28;20619;-65
2022/05/09 10:01:20;;;;;;;6.90;6.60;;;;;;;25.38;35.51;101419.94;5026262;28;20033;-65
2022/05/09 10:03:48;;;;;;;6.80;6.50;;;;;;;24.68;36.56;101418.63;5026328;28;20032;-64
2022/05/09 10:06:22;;;;;;;6.75;6.45;;;;;;;24.48;39.42;101424.50;5038208;28;20056;-63
2022/05/09 10:08:58;;;;;;;6.60;6.30;;;;;;;24.67;40.40;101418.84;5027178;28;20061;-62
2022/05/09 10:11:28;;;;;;;6.60;6.30;;;;;;;23.56;42.43;101415.63;5037527;28;20064;-64
2022/05/09 10:13:59;;;;;;;6.90;6.60;;;;;;;23.81;42.47;101402.66;5032655;28;20045;-64
2022/05/09 10:16:31;;;;;;;6.82;6.53;;;;;;;24.02;41.40;101403.00;5037973;28;20021;-64
2022/05/09 10:18:58;;;;;;;6.80;6.50;;;;;;;21.38;47.64;101385.53;5027610;28;20025;-64
2022/05/09 10:27:15;;;;;;;6.60;6.30;;;;;;;24.03;40.05;101383.00;5035239;28;20140;-64
2022/05/09 10:29:44;;;;;;;6.55;6.25;;;;;;;24.38;39.55;101380.09;5041721;28;20061;-64
2022/05/09 10:32:12;;;;;;;6.47;6.18;;;;;;;23.38;39.16;101374.13;5032548;28;20041;-63
2022/05/09 10:34:56;;;;;;;6.40;6.10;;;;;;;22.82;40.55;101358.50;5029859;28;20037;-63
2022/05/09 10:37:38;;;;;;;;;;;;;;;23.13;39.55;101362.75;5040753;28;20420;-63
2022/05/09 10:40:30;;;;;;;6.70;6.40;;;;;;;23.70;39.27;101358.25;5030559;28;19917;-63
2022/05/09 10:43:08;;;;;;;6.60;6.30;;;;;;;24.04;37.69;101355.66;5029957;28;20069;-64
2022/05/09 10:45:43;;;;;;;6.57;6.28;;;;;;;24.38;37.56;101355.69;5021756;28;20135;-64
2022/05/09 10:48:14;;;;;;;6.70;6.40;;;;;;;23.91;38.14;101358.66;5027537;28;20082;-64
2022/05/09 10:50:50;;;;;;;6.60;6.30;;;;;;;22.85;41.04;101345.38;5036103;28;20041;-61
2022/05/09 10:53:25;;;;;;;6.88;6.57;;;;;;;21.93;44.11;101344.09;5025929;28;20033;-63
2022/05/09 10:56:03;;;;;;;6.60;6.30;;;;;;;22.50;42.70;101337.22;5030371;28;20030;-63
2022/05/09 10:58:35;;;;;;;6.70;6.40;;;;;;;23.69;40.85;101339.56;5029195;28;20160;-64
2022/05/09 11:01:29;;;;;;;6.60;6.30;;;;;;;23.84;39.95;101339.00;5038079;28;20055;-64
2022/05/09 11:03:56;;;;;;;6.40;6.10;;;;;;;23.75;40.31;101332.34;5023187;28;20485;-64
2022/05/09 11:06:37;;;;;;;6.68;6.38;;;;;;;24.21;38.32;101337.50;5030232;28;20266;-63
2022/05/09 11:09:21;;;;;;;6.80;6.50;;;;;;;23.75;39.62;101330.47;5031194;28;20040;-64
2022/05/09 11:12:05;;;;;;;7.05;6.75;;;;;;;24.34;39.38;101328.25;5036132;28;20040;-62
2022/05/09 11:14:46;;;;;;;6.80;6.50;;;;;;;24.40;38.97;101338.13;5037866;28;20044;-65
2022/05/09 11:17:21;;;;;;;6.60;6.30;;;;;;;23.93;39.42;101327.53;5035543;28;20044;-64
2022/05/09 11:20:05;;;;;;;6.72;6.43;;;;;;;23.44;41.43;101321.72;5031216;28;20033;-65
2022/05/09 11:22:42;;;;;;;6.70;6.40;;;;;;;24.29;40.23;101325.44;5026957;28;20490;-64
2022/05/09 11:25:13;;;;;;;6.70;6.40;;;;;;;24.20;39.41;101322.31;5035513;28;20057;-64
2022/05/09 11:28:07;;;;;;;6.82;6.53;;;;;;;24.30;38.78;101324.34;5039150;28;20047;-63
2022/05/09 11:30:59;;;;;;;6.68;6.38;;;;;;;24.70;38.85;101313.34;5027240;28;20053;-64
2022/05/09 11:33:49;;;;;;;6.70;6.40;;;;;;;24.05;39.59;101313.09;5027064;28;20052;-64
2022/05/09 11:36:39;;;;;;;6.43;6.13;;;;;;;24.22;39.22;101312.03;5027920;28;20469;-63
2022/05/09 11:39:26;;;;;;;6.82;6.53;;;;;;;22.96;41.99;101310.41;5030771;28;20163;-65
2022/05/09 11:45:33;;;;;;;6.60;6.30;;;;;;;23.37;42.43;101309.38;5041188;28;20052;-64
2022/05/09 11:48:50;;;;;;;6.88;6.57;;;;;;;24.24;40.34;101311.81;5001900;28;20039;-65
2022/05/09 11:51:50;;;;;;;7.20;6.90;;;;;;;24.78;39.95;101310.22;5006225;28;20099;-64
2022/05/09 11:54:28;;;;;;;6.90;6.60;;;;;;;24.71;38.21;101312.28;4994040;28;20438;-65